Main page
METAR-TAF:

METAR-TAF

Airports :

Lleida-Alguaire

Lleida, Spain

latitude: 41-43-40N, longitude: 000-32-09E, elevation: 350 m

Current weather observation

The report was made 7 hours and 50 minutes ago, at 17:30 UTC
Wind 13 kt from the West
Temperature 11°C
Humidity 100%
Pressure 998 hPa
Visibility: 8000 m
Broken clouds at a height of 3000 ft
rain

METAR: LEDA 231730Z 27013KT 8000 RA BKN030 11/11 Q0998

Time: 03:20 (01:20 UTC)


TAF: missing

Weather observations and forecasts of more than 4000 airports (METAR and TAF reports).

The available stations are represented by yellow and red dots on the map.

Hover mouse over dot to see the name of the station.

Then click to see weather observations and forecasts.

To change the map : click on the green buttons with a black cross to zoom in, on the green button with a dash to zoom out, or on the green arrows for adjacent maps.


METAR-TAF: